createdAt,value
2018-09-02T00:01:01.282Z,9.60
2018-09-02T00:03:29.797Z,9.50
2018-09-02T00:05:58.332Z,8.87
2018-09-02T00:08:26.852Z,10.50
2018-09-02T00:10:55.370Z,10.23
2018-09-02T00:13:23.840Z,9.57
2018-09-02T00:15:52.725Z,10.23
2018-09-02T00:18:21.225Z,10.60
2018-09-02T00:20:49.758Z,10.27
2018-09-02T00:23:18.230Z,10.63
2018-09-02T00:25:47.912Z,10.70
2018-09-02T00:28:16.398Z,10.27
2018-09-02T00:30:44.905Z,10.53
2018-09-02T00:33:13.452Z,11.03
2018-09-02T00:35:42.423Z,11.93
2018-09-02T00:38:10.996Z,11.93
2018-09-02T00:40:39.531Z,12.57
2018-09-02T00:43:08.122Z,12.50
2018-09-02T00:45:36.749Z,12.40
2018-09-02T00:48:05.337Z,13.67
2018-09-02T00:50:33.845Z,13.37
2018-09-02T00:53:02.352Z,13.87
2018-09-02T00:55:30.857Z,14.83
2018-09-02T00:57:59.400Z,15.30
2018-09-02T01:00:27.929Z,15.83
2018-09-02T01:02:56.428Z,15.97
2018-09-02T01:05:24.942Z,15.53
2018-09-02T01:07:54.854Z,15.67
2018-09-02T01:10:23.506Z,14.67
2018-09-02T01:12:52.177Z,15.77
2018-09-02T01:15:20.707Z,14.77
2018-09-02T01:17:49.277Z,15.40
2018-09-02T01:20:17.774Z,14.20
2018-09-02T01:22:46.298Z,16.00
2018-09-02T01:25:14.781Z,15.57
2018-09-02T01:27:43.343Z,15.33
2018-09-02T01:30:11.868Z,15.60
2018-09-02T01:32:40.361Z,15.83
2018-09-02T01:35:12.042Z,15.40
2018-09-02T01:37:40.582Z,15.43
2018-09-02T01:40:09.082Z,15.77
2018-09-02T01:42:37.573Z,14.70
2018-09-02T01:45:06.114Z,15.33
2018-09-02T01:47:34.661Z,15.67
2018-09-02T01:50:03.199Z,15.77
2018-09-02T01:52:31.740Z,15.60
2018-09-02T01:55:00.238Z,14.53
2018-09-02T01:57:28.751Z,15.30
2018-09-02T01:59:57.250Z,15.70
2018-09-02T02:02:25.781Z,14.73
2018-09-02T02:04:54.288Z,14.87
2018-09-02T02:07:22.798Z,15.17
2018-09-02T02:09:51.280Z,14.97
2018-09-02T02:12:19.778Z,14.20
2018-09-02T02:14:48.247Z,14.23
2018-09-02T02:17:16.800Z,13.57
2018-09-02T02:19:45.332Z,13.20
2018-09-02T02:22:13.863Z,12.80
2018-09-02T02:24:42.338Z,12.20
2018-09-02T02:27:10.845Z,11.43
2018-09-02T02:29:39.321Z,10.97
2018-09-02T02:32:07.825Z,10.60
2018-09-02T02:34:36.301Z,11.03
2018-09-02T02:37:04.947Z,10.43
2018-09-02T02:39:33.436Z,9.70
2018-09-02T02:42:01.985Z,10.07
2018-09-02T02:44:30.489Z,9.13
2018-09-02T02:46:58.997Z,8.57
2018-09-02T02:49:27.489Z,8.90
2018-09-02T02:51:55.980Z,8.20
2018-09-02T02:54:24.485Z,7.97
2018-09-02T02:56:52.967Z,7.57
2018-09-02T02:59:21.472Z,7.17
2018-09-02T03:01:49.936Z,6.77
2018-09-02T03:04:18.437Z,7.20
2018-09-02T03:06:46.920Z,6.90
2018-09-02T03:09:15.442Z,6.83
2018-09-02T03:11:43.982Z,6.80
2018-09-02T03:14:12.539Z,6.67
2018-09-02T03:16:41.297Z,6.37
2018-09-02T03:19:10.315Z,6.83
2018-09-02T03:21:38.869Z,6.77
2018-09-02T03:24:07.453Z,6.80
2018-09-02T03:26:35.925Z,6.50
2018-09-02T03:29:04.448Z,7.23
2018-09-02T03:31:32.933Z,6.80
2018-09-02T03:34:01.474Z,7.17
2018-09-02T03:36:29.921Z,6.57
2018-09-02T03:38:58.394Z,7.10
2018-09-02T03:41:26.880Z,6.27
2018-09-02T03:43:55.424Z,6.70
2018-09-02T03:46:23.898Z,6.80
2018-09-02T03:48:52.493Z,6.30
2018-09-02T03:51:21.001Z,6.27
2018-09-02T03:53:49.535Z,6.67
2018-09-02T03:56:18.019Z,6.93
2018-09-02T03:58:46.635Z,6.60
2018-09-02T04:01:15.100Z,6.63
2018-09-02T04:03:43.642Z,6.67
2018-09-02T04:06:12.122Z,6.77
2018-09-02T04:08:40.630Z,7.20
2018-09-02T04:11:09.126Z,6.10
2018-09-02T04:13:37.633Z,6.93
2018-09-02T04:16:06.144Z,6.40
2018-09-02T04:18:34.651Z,7.20
2018-09-02T04:21:03.105Z,6.83
2018-09-02T04:23:31.587Z,6.23
2018-09-02T04:26:00.095Z,6.20
2018-09-02T04:28:28.606Z,6.70
2018-09-02T04:30:57.085Z,6.67
2018-09-02T04:33:25.590Z,6.57
2018-09-02T04:35:54.063Z,6.93
2018-09-02T04:38:22.527Z,6.97
2018-09-02T04:40:51.041Z,6.67
2018-09-02T04:43:19.514Z,6.63
2018-09-02T04:45:48.054Z,6.83
2018-09-02T04:48:16.554Z,6.50
2018-09-02T04:50:45.058Z,7.10
2018-09-02T04:53:13.549Z,6.60
2018-09-02T04:55:42.080Z,6.60
2018-09-02T04:58:10.566Z,6.43
2018-09-02T05:00:39.073Z,6.33
2018-09-02T05:03:07.558Z,6.63
2018-09-02T05:05:36.054Z,5.90
2018-09-02T05:08:04.529Z,6.00
2018-09-02T05:10:33.047Z,6.00
2018-09-02T05:13:01.497Z,5.87
2018-09-02T05:15:30.010Z,5.20
2018-09-02T05:17:58.574Z,5.87
2018-09-02T05:20:27.062Z,5.73
2018-09-02T05:22:55.562Z,6.60
2018-09-02T05:25:24.118Z,5.87
2018-09-02T05:27:52.650Z,6.20
2018-09-02T05:30:21.226Z,5.60
2018-09-02T05:32:49.745Z,5.60
2018-09-02T05:35:18.253Z,5.60
2018-09-02T05:37:46.737Z,5.37
2018-09-02T05:40:15.252Z,5.00
2018-09-02T05:42:43.874Z,5.10
2018-09-02T05:45:12.369Z,5.10
2018-09-02T05:47:40.854Z,5.20
2018-09-02T05:50:09.390Z,5.20
2018-09-02T05:52:37.889Z,4.60
2018-09-02T05:55:07.026Z,4.53
2018-09-02T05:57:35.572Z,4.50
2018-09-02T06:00:04.535Z,4.53
2018-09-02T06:02:33.029Z,4.83
2018-09-02T06:05:01.634Z,4.37
2018-09-02T06:07:30.136Z,3.93
2018-09-02T06:09:58.645Z,3.93
2018-09-02T06:12:27.144Z,3.97
2018-09-02T06:14:55.650Z,3.70
2018-09-02T06:17:24.244Z,3.60
2018-09-02T06:19:52.718Z,3.50
2018-09-02T06:22:21.202Z,3.70
2018-09-02T06:24:49.728Z,3.57
2018-09-02T06:27:18.188Z,3.20
2018-09-02T06:29:46.722Z,3.23
2018-09-02T06:32:15.186Z,2.83
2018-09-02T06:34:43.663Z,3.70
2018-09-02T06:37:12.174Z,3.30
2018-09-02T06:39:40.733Z,3.23
2018-09-02T06:42:09.238Z,3.37
2018-09-02T06:44:37.745Z,3.43
2018-09-02T06:47:06.273Z,2.97
2018-09-02T06:49:34.761Z,3.40
2018-09-02T06:52:03.250Z,3.60
2018-09-02T06:54:31.897Z,3.90
2018-09-02T06:57:00.406Z,3.33
2018-09-02T06:59:28.888Z,3.60
2018-09-02T07:01:57.385Z,3.00
2018-09-02T07:04:26.716Z,3.20
2018-09-02T07:06:55.228Z,3.00
2018-09-02T07:09:23.736Z,3.00
2018-09-02T07:11:52.527Z,2.90
2018-09-02T07:14:21.013Z,2.73
2018-09-02T07:16:51.400Z,2.90
2018-09-02T07:19:20.074Z,3.27
2018-09-02T07:21:49.149Z,3.10
2018-09-02T07:24:22.313Z,3.17
2018-09-02T07:26:50.816Z,3.00
2018-09-02T07:29:19.273Z,3.10
2018-09-02T07:31:48.645Z,3.23
2018-09-02T07:34:17.295Z,2.70
2018-09-02T07:36:45.877Z,2.70
2018-09-02T07:39:14.389Z,2.50
2018-09-02T07:41:43.592Z,2.20
2018-09-02T07:44:12.438Z,2.17
2018-09-02T07:46:42.700Z,2.20
2018-09-02T07:49:11.861Z,2.20
2018-09-02T07:51:40.360Z,2.20
2018-09-02T07:54:08.825Z,2.00
2018-09-02T07:56:37.639Z,2.20
2018-09-02T07:59:06.265Z,2.07
2018-09-02T08:01:34.997Z,2.10
2018-09-02T08:04:03.665Z,1.90
2018-09-02T08:06:33.147Z,2.13
2018-09-02T08:09:01.653Z,1.97
2018-09-02T08:11:30.169Z,1.80
2018-09-02T08:13:59.561Z,2.07
2018-09-02T08:16:28.054Z,2.20
2018-09-02T08:18:56.649Z,2.33
2018-09-02T08:21:25.134Z,2.60
2018-09-02T08:23:53.589Z,2.30
2018-09-02T08:26:22.087Z,2.40
2018-09-02T08:28:50.605Z,2.57
2018-09-02T08:31:19.158Z,2.23
2018-09-02T08:33:47.632Z,2.40
2018-09-02T08:36:16.146Z,2.47
2018-09-02T08:38:44.668Z,2.53
2018-09-02T08:41:13.150Z,2.70
2018-09-02T08:43:41.650Z,3.20
2018-09-02T08:46:10.137Z,3.30
2018-09-02T08:48:38.649Z,3.60
2018-09-02T08:51:07.180Z,3.60
2018-09-02T08:53:35.690Z,3.40
2018-09-02T08:56:04.244Z,3.60
2018-09-02T08:58:32.728Z,11.87
2018-09-02T09:01:01.206Z,5.73
2018-09-02T09:03:29.757Z,4.20
2018-09-02T09:05:58.230Z,5.50
2018-09-02T09:08:26.879Z,5.20
2018-09-02T09:10:56.738Z,5.10
2018-09-02T09:13:25.238Z,5.60
2018-09-02T09:15:53.778Z,5.00
2018-09-02T09:18:22.277Z,4.20
2018-09-02T09:20:50.867Z,3.90
2018-09-02T09:23:19.437Z,3.57
2018-09-02T09:25:47.905Z,3.00
2018-09-02T09:31:10.162Z,3.20
2018-09-02T09:33:39.341Z,3.10
2018-09-02T09:36:07.963Z,3.83
2018-09-02T09:38:36.486Z,3.60
2018-09-02T09:41:06.262Z,4.60
2018-09-02T09:43:34.782Z,4.97
2018-09-02T09:46:03.300Z,4.97
2018-09-02T09:48:31.798Z,4.70
2018-09-02T09:51:00.291Z,4.00
2018-09-02T09:53:28.814Z,4.20
2018-09-02T09:55:57.358Z,3.87
2018-09-02T09:58:30.946Z,3.57
2018-09-02T10:00:59.433Z,3.67
2018-09-02T10:03:27.952Z,4.10
2018-09-02T10:05:56.430Z,4.10
2018-09-02T10:08:24.942Z,4.13
2018-09-02T10:10:53.466Z,3.90
2018-09-02T10:13:21.982Z,4.80
2018-09-02T10:15:50.508Z,4.77
2018-09-02T10:18:19.091Z,4.70
2018-09-02T10:20:47.510Z,4.90
2018-09-02T10:23:16.034Z,5.07
2018-09-02T10:25:44.525Z,5.00
2018-09-02T10:28:13.126Z,4.53
2018-09-02T10:30:42.361Z,4.53
2018-09-02T10:33:10.949Z,4.67
2018-09-02T10:35:39.452Z,5.00
2018-09-02T10:38:07.946Z,4.50
2018-09-02T10:40:36.428Z,4.83
2018-09-02T10:43:04.962Z,3.90
2018-09-02T10:48:26.301Z,3.80
2018-09-02T10:53:47.381Z,3.43
2018-09-02T11:10:38.326Z,3.30
2018-09-02T11:13:07.825Z,3.53
2018-09-02T11:18:29.627Z,4.10
2018-09-02T11:20:58.150Z,3.63
2018-09-02T11:23:26.708Z,4.00
2018-09-02T11:25:55.273Z,3.80
2018-09-02T11:28:23.802Z,3.93
2018-09-02T11:30:52.298Z,3.53
2018-09-02T11:33:20.893Z,5.97
2018-09-02T11:35:49.527Z,3.70
2018-09-02T11:38:18.094Z,3.83
2018-09-02T11:40:47.170Z,3.83
2018-09-02T11:43:16.778Z,4.60
2018-09-02T11:45:45.702Z,4.80
2018-09-02T11:48:19.854Z,4.70
2018-09-02T11:50:48.398Z,4.93
2018-09-02T11:53:16.946Z,5.43
2018-09-02T11:55:45.492Z,5.47
2018-09-02T11:58:13.996Z,4.83
2018-09-02T12:00:42.587Z,5.00
2018-09-02T12:03:11.132Z,5.33
2018-09-02T12:05:46.370Z,5.50
2018-09-02T12:08:16.539Z,5.63
2018-09-02T12:10:49.982Z,5.83
2018-09-02T12:13:18.500Z,7.00
2018-09-02T12:15:47.116Z,7.63
2018-09-02T12:18:15.700Z,8.33
2018-09-02T12:20:44.830Z,9.47
2018-09-02T12:23:13.306Z,9.83
2018-09-02T12:46:42.432Z,10.60
2018-09-02T12:52:17.643Z,7.67
2018-09-02T12:57:39.354Z,7.50
2018-09-02T13:03:00.532Z,6.67
2018-09-02T13:08:22.027Z,6.67
2018-09-02T13:10:50.601Z,5.67
2018-09-02T13:16:21.513Z,6.10
2018-09-02T13:18:50.038Z,5.97
2018-09-02T13:21:18.516Z,5.83
2018-09-02T13:23:47.050Z,5.93
2018-09-02T13:26:15.598Z,6.60
2018-09-02T13:28:44.086Z,6.00
2018-09-02T13:31:12.631Z,6.30
2018-09-02T13:33:41.124Z,6.13
2018-09-02T13:42:25.210Z,6.50
2018-09-02T13:44:55.435Z,6.33
2018-09-02T13:47:31.358Z,6.47
2018-09-02T13:49:59.915Z,7.50
2018-09-02T13:55:26.635Z,8.57
2018-09-02T14:03:40.137Z,5.90
2018-09-02T14:29:51.948Z,6.10
2018-09-02T14:35:15.891Z,6.10
2018-09-02T14:37:46.390Z,6.07
2018-09-02T14:57:53.002Z,5.53
2018-09-02T15:03:19.902Z,6.00
2018-09-02T15:17:26.759Z,6.07
2018-09-02T15:31:49.257Z,6.70
2018-09-02T16:03:33.378Z,6.47
2018-09-02T16:06:02.019Z,6.00
2018-09-02T16:08:30.555Z,5.93
2018-09-02T16:10:59.082Z,5.53
2018-09-02T16:13:27.626Z,5.50
2018-09-02T16:15:56.119Z,6.07
2018-09-02T16:18:24.662Z,6.10
2018-09-02T16:20:53.200Z,6.87
2018-09-02T16:23:21.747Z,6.80
2018-09-02T16:25:50.293Z,6.60
2018-09-02T16:31:13.854Z,7.10
2018-09-02T16:36:37.865Z,7.20
2018-09-02T16:39:10.229Z,6.77
2018-09-02T16:44:53.345Z,7.03
2018-09-02T16:53:31.079Z,7.20
2018-09-02T17:19:05.000Z,10.80
2018-09-02T17:41:50.238Z,12.97
2018-09-02T17:44:23.175Z,12.97
2018-09-02T17:49:44.564Z,12.73
2018-09-02T17:55:05.941Z,12.47
2018-09-02T18:03:39.395Z,12.60
2018-09-02T18:09:00.887Z,12.37
2018-09-02T18:11:31.114Z,12.77
2018-09-02T18:13:59.826Z,12.47
2018-09-02T18:16:28.343Z,13.70
2018-09-02T18:18:56.921Z,13.93
2018-09-02T18:21:25.377Z,13.17
2018-09-02T18:23:53.898Z,12.30
2018-09-02T18:26:22.359Z,12.40
2018-09-02T18:28:51.479Z,12.37
2018-09-02T18:31:20.006Z,11.33
2018-09-02T18:33:48.557Z,11.80
2018-09-02T18:36:17.139Z,11.80
2018-09-02T18:38:45.722Z,10.43
2018-09-02T18:41:14.289Z,11.03
2018-09-02T18:43:44.051Z,10.20
2018-09-02T18:46:12.958Z,10.23
2018-09-02T18:48:41.493Z,10.60
2018-09-02T18:51:10.217Z,11.33
2018-09-02T18:53:38.942Z,10.20
2018-09-02T18:56:07.561Z,10.30
2018-09-02T18:58:36.318Z,10.13
2018-09-02T19:01:05.334Z,10.17
2018-09-02T19:03:33.884Z,10.07
2018-09-02T19:06:03.330Z,10.63
2018-09-02T19:08:31.890Z,10.17
2018-09-02T19:11:00.458Z,10.50
2018-09-02T19:13:28.938Z,12.77
2018-09-02T19:15:57.526Z,12.97
2018-09-02T19:18:26.022Z,13.30
2018-09-02T19:20:54.535Z,14.27
2018-09-02T19:23:23.034Z,13.80
2018-09-02T19:25:51.555Z,13.30
2018-09-02T19:28:20.058Z,13.53
2018-09-02T19:30:48.559Z,13.43
2018-09-02T19:33:17.046Z,13.13
2018-09-02T19:35:45.551Z,12.70
2018-09-02T19:38:14.080Z,12.57
2018-09-02T19:40:42.586Z,11.47
2018-09-02T19:43:11.105Z,11.57
2018-09-02T19:45:39.590Z,10.70
2018-09-02T19:48:08.073Z,11.40
2018-09-02T19:50:36.573Z,11.83
2018-09-02T19:53:05.098Z,11.20
2018-09-02T19:55:33.629Z,11.57
2018-09-02T19:58:02.156Z,13.00
2018-09-02T20:00:30.671Z,12.30
2018-09-02T20:02:59.165Z,12.87
2018-09-02T20:05:27.694Z,13.10
2018-09-02T20:07:56.235Z,13.50
2018-09-02T20:10:24.760Z,12.70
2018-09-02T20:12:53.274Z,12.87
2018-09-02T20:15:21.808Z,12.23
2018-09-02T20:17:50.307Z,12.27
2018-09-02T20:20:18.894Z,11.90
2018-09-02T20:22:47.374Z,11.63
2018-09-02T20:25:15.886Z,11.83
2018-09-02T20:27:44.366Z,12.43
2018-09-02T20:30:13.070Z,11.73
2018-09-02T20:32:41.614Z,12.40
2018-09-02T20:35:10.131Z,12.60
2018-09-02T20:37:38.632Z,12.57
2018-09-02T20:40:08.370Z,12.77
2018-09-02T20:42:36.875Z,14.90
2018-09-02T20:45:05.491Z,12.53
2018-09-02T20:50:26.082Z,11.53
2018-09-02T20:55:50.799Z,11.47
2018-09-02T20:58:19.408Z,11.60
2018-09-02T21:00:52.774Z,11.13
2018-09-02T21:06:14.378Z,11.80
2018-09-02T21:08:42.882Z,11.00
2018-09-02T21:11:12.137Z,11.43
2018-09-02T21:16:33.969Z,11.73
2018-09-02T21:19:02.673Z,10.97
2018-09-02T21:21:32.211Z,10.70
2018-09-02T21:24:02.801Z,11.33
2018-09-02T21:32:16.805Z,11.03
2018-09-02T21:34:45.394Z,11.23
2018-09-02T21:37:15.792Z,11.07
2018-09-02T21:39:47.310Z,11.63
2018-09-02T21:45:07.050Z,11.17
2018-09-02T21:47:37.541Z,13.40
2018-09-02T21:50:06.418Z,13.67
2018-09-02T21:55:31.046Z,13.60
2018-09-02T21:58:05.578Z,13.13
2018-09-02T22:00:34.114Z,12.87
2018-09-02T22:05:55.067Z,17.47
2018-09-02T22:08:23.868Z,16.23
2018-09-02T22:10:52.397Z,17.20
2018-09-02T22:13:20.876Z,16.23
2018-09-02T22:15:49.380Z,17.07
2018-09-02T22:18:17.867Z,16.93
2018-09-02T22:20:46.394Z,18.57
2018-09-02T22:23:14.845Z,21.70
2018-09-02T22:25:43.369Z,21.37
2018-09-02T22:28:11.853Z,17.83
2018-09-02T22:30:40.346Z,17.87
2018-09-02T22:33:08.884Z,16.03
2018-09-02T22:35:37.373Z,16.93
2018-09-02T22:38:05.952Z,20.00
2018-09-02T22:40:34.456Z,20.80
2018-09-02T22:43:02.958Z,20.23
2018-09-02T22:45:31.468Z,21.87
2018-09-02T22:48:00.041Z,21.10
2018-09-02T22:50:28.577Z,21.60
2018-09-02T22:52:57.053Z,22.50
2018-09-02T22:55:25.556Z,25.37
2018-09-02T22:57:54.086Z,23.87
2018-09-02T23:00:22.578Z,23.03
2018-09-02T23:02:51.074Z,23.57
2018-09-02T23:05:19.609Z,22.57
2018-09-02T23:07:48.120Z,22.00
2018-09-02T23:10:16.615Z,21.80
2018-09-02T23:12:45.683Z,21.97
2018-09-02T23:15:14.285Z,20.87
2018-09-02T23:17:42.830Z,23.00
2018-09-02T23:20:11.360Z,22.13
2018-09-02T23:22:40.125Z,23.00
2018-09-02T23:25:10.153Z,23.47
2018-09-02T23:27:38.726Z,21.87
2018-09-02T23:30:07.225Z,21.03
2018-09-02T23:32:35.721Z,21.83
2018-09-02T23:35:04.314Z,22.17
2018-09-02T23:37:32.842Z,21.80
2018-09-02T23:42:53.506Z,22.13
2018-09-02T23:45:22.029Z,22.57
2018-09-02T23:47:51.118Z,22.27
2018-09-02T23:50:19.625Z,21.20
2018-09-02T23:53:06.056Z,21.73
2018-09-02T23:55:34.623Z,22.70
2018-09-02T23:58:07.180Z,24.03
